Ludowici, Georgia
Current Conditions -  °F | °C
As of 8:55 PM on Monday 24 Nov 2014 (Local Time) from KJES Reporting Station
Light Rain Light Rain  
Wind Chill: 70°   Ceiling: 6500
Heat Index: 70°   Visibility: 5mi
Dew Point: 68°   Wind: 0mph
Humidity: 94%   Direction: NA
Pressure: 29.98"   Gusts: NA
Location:  31.71°N, 81.74°W
Report Text: KJES 250155Z AUTO 00000KT 5SM -RA SCT040 OVC065 21/20 A2998 RMK AO2
Loading
Personal Weather Stations






























Interactive Weather Map New forecast layout! Learn more

10-Day Weather Forecast

Advertisements
Track Severe Weather on mobile